Time;durP1;ratioP1;P1;durP2;ratioP2;P2;SDS_P1;SDS_P2;PMS_P1;PMS_P2;Temp;Humidity;BMP_temperature;BMP_pressure;BME280_temperature;BME280_humidity;BME280_pressure;Samples;Min_cycle;Max_cycle;Signal;HPM_P1;HPM_P2
2023/11/26 00:00:18;;;;;;;24.97;4.93;;;5.80;99.90;;;;;;5039186;28;20162;-83
2023/11/26 00:02:44;;;;;;;25.87;4.93;;;5.70;99.90;;;;;;5020948;28;20184;-83
2023/11/26 00:05:10;;;;;;;22.50;4.40;;;5.70;99.90;;;;;;5021191;28;20263;-83
2023/11/26 00:07:36;;;;;;;28.47;4.80;;;5.70;99.90;;;;;;5019933;28;20173;-83
2023/11/26 00:10:02;;;;;;;22.42;2.60;;;5.70;99.90;;;;;;5021178;28;20228;-83
2023/11/26 00:12:28;;;;;;;26.03;3.70;;;5.70;99.90;;;;;;5038308;28;20170;-83
2023/11/26 00:14:53;;;;;;;28.27;4.80;;;5.80;99.90;;;;;;5020296;28;20452;-83
2023/11/26 00:17:20;;;;;;;31.77;4.40;;;5.80;99.90;;;;;;5038109;28;20397;-83
2023/11/26 00:19:46;;;;;;;22.25;3.05;;;5.80;99.90;;;;;;5038711;28;20522;-83
2023/11/26 00:22:14;;;;;;;30.48;3.58;;;5.80;99.90;;;;;;5039160;28;20566;-83
2023/11/26 00:24:40;;;;;;;26.10;4.28;;;5.70;99.90;;;;;;5020598;28;20665;-83
2023/11/26 00:27:05;;;;;;;25.43;3.70;;;5.70;99.90;;;;;;5038376;28;20170;-83
2023/11/26 00:29:40;;;;;;;26.50;3.87;;;5.70;99.90;;;;;;5038397;28;20220;-83
2023/11/26 00:32:07;;;;;;;21.27;2.80;;;5.70;99.90;;;;;;5020586;28;20689;-83
2023/11/26 00:34:36;;;;;;;23.92;3.58;;;5.80;99.90;;;;;;5037876;28;20280;-83
2023/11/26 00:37:05;;;;;;;21.08;3.60;;;5.80;99.90;;;;;;5037824;28;20530;-83
2023/11/26 00:39:37;;;;;;;24.67;4.35;;;5.80;99.90;;;;;;5020387;28;20188;-83
2023/11/26 00:42:03;;;;;;;37.33;4.45;;;5.70;99.90;;;;;;5037838;28;20158;-83
2023/11/26 00:44:29;;;;;;;25.95;3.40;;;5.70;99.90;;;;;;5037663;28;20185;-83
2023/11/26 00:46:55;;;;;;;25.53;3.50;;;5.70;99.90;;;;;;5037012;28;20166;-83
2023/11/26 00:49:21;;;;;;;30.83;3.58;;;5.70;99.90;;;;;;5038284;28;20169;-83
2023/11/26 00:51:50;;;;;;;25.58;4.53;;;5.70;99.90;;;;;;5037858;28;20166;-83
2023/11/26 00:54:15;;;;;;;23.92;3.03;;;5.70;99.90;;;;;;5038243;28;20201;-83
2023/11/26 00:56:41;;;;;;;23.27;3.37;;;5.70;99.90;;;;;;5037941;28;20153;-83
2023/11/26 00:59:10;;;;;;;25.30;3.43;;;5.60;99.90;;;;;;5037765;28;20162;-83
2023/11/26 01:01:36;;;;;;;22.77;3.08;;;5.70;99.90;;;;;;5037421;28;20162;-83
2023/11/26 01:04:02;;;;;;;25.37;4.00;;;5.60;99.90;;;;;;5037595;28;20247;-83
2023/11/26 01:06:28;;;;;;;32.30;4.30;;;5.70;99.90;;;;;;5038048;28;20619;-83
2023/11/26 01:08:53;;;;;;;29.03;4.90;;;5.70;99.90;;;;;;5037252;28;20174;-83
2023/11/26 01:11:19;;;;;;;29.80;4.77;;;5.70;99.90;;;;;;5019162;28;20201;-83
2023/11/26 01:13:47;;;;;;;30.43;5.00;;;5.70;99.90;;;;;;5037103;28;20246;-83
2023/11/26 01:16:14;;;;;;;28.23;4.38;;;5.70;99.90;;;;;;5037344;28;20173;-83
2023/11/26 01:18:48;;;;;;;25.65;4.53;;;5.70;99.90;;;;;;5037021;28;20154;-83
2023/11/26 01:21:14;;;;;;;28.70;4.70;;;5.70;99.90;;;;;;5019460;28;20169;-83
2023/11/26 01:23:43;;;;;;;27.03;4.20;;;5.70;99.90;;;;;;5019408;28;20283;-83
2023/11/26 01:26:10;;;;;;;30.63;3.75;;;5.70;99.90;;;;;;5036231;28;20185;-83
2023/11/26 01:28:36;;;;;;;26.00;3.60;;;5.60;99.90;;;;;;5036648;28;20598;-83
2023/11/26 01:31:10;;;;;;;23.13;3.13;;;5.70;99.90;;;;;;5019243;28;20169;-83
2023/11/26 01:33:45;;;;;;;28.60;4.35;;;5.70;99.90;;;;;;5036709;28;20193;-83
2023/11/26 01:36:11;;;;;;;29.75;3.80;;;5.70;99.90;;;;;;5018982;28;20246;-83
2023/11/26 01:38:36;;;;;;;23.33;3.60;;;5.70;99.90;;;;;;5019291;28;20166;-83
2023/11/26 01:41:02;;;;;;;22.07;3.27;;;5.70;99.90;;;;;;5036859;28;20631;-83
2023/11/26 01:43:31;;;;;;;26.80;3.57;;;5.70;99.90;;;;;;5036305;28;20797;-83
2023/11/26 01:46:10;;;;;;;25.75;4.00;;;5.70;99.90;;;;;;5036479;28;20397;-83
2023/11/26 01:48:36;;;;;;;25.58;3.33;;;5.70;99.90;;;;;;5019570;28;20162;-83
2023/11/26 01:51:08;;;;;;;24.33;3.97;;;5.70;99.90;;;;;;5037025;28;20166;-83
2023/11/26 01:53:36;;;;;;;24.23;3.25;;;5.70;99.90;;;;;;5036799;28;20702;-83
2023/11/26 01:56:02;;;;;;;23.10;3.50;;;5.70;99.90;;;;;;5036791;28;20304;-83
2023/11/26 01:58:29;;;;;;;23.92;3.45;;;5.60;99.90;;;;;;5036118;28;20162;-83
2023/11/26 02:00:56;;;;;;;24.25;3.70;;;5.60;99.90;;;;;;5036925;28;20185;-83
2023/11/26 02:03:22;;;;;;;23.80;3.15;;;5.60;99.90;;;;;;5185661;22;20221;-85
2023/11/26 02:08:16;;;;;;;28.08;4.35;;;5.60;99.90;;;;;;5039309;28;21034;-83
2023/11/26 02:10:42;;;;;;;27.55;3.47;;;5.60;99.90;;;;;;5040431;28;20162;-83
2023/11/26 02:13:09;;;;;;;21.05;2.90;;;5.50;99.90;;;;;;5022054;28;20201;-83
2023/11/26 02:15:35;;;;;;;26.63;4.10;;;5.50;99.90;;;;;;5039476;28;20158;-83
2023/11/26 02:18:01;;;;;;;27.95;4.32;;;5.50;99.90;;;;;;5038960;28;20549;-83
2023/11/26 02:20:28;;;;;;;27.08;3.90;;;5.50;99.90;;;;;;5039554;28;20170;-83
2023/11/26 02:22:54;;;;;;;25.08;4.22;;;5.50;99.90;;;;;;5039199;28;20173;-83
2023/11/26 02:25:29;;;;;;;23.03;3.67;;;5.50;99.90;;;;;;5039773;28;20174;-83
2023/11/26 02:27:56;;;;;;;25.65;3.63;;;5.60;99.90;;;;;;5021393;28;20413;-83
2023/11/26 02:30:22;;;;;;;23.23;4.35;;;5.60;99.90;;;;;;5039771;28;20168;-83
2023/11/26 02:32:48;;;;;;;26.50;3.63;;;5.60;99.90;;;;;;5039395;28;20174;-83
2023/11/26 02:35:14;;;;;;;32.03;4.37;;;5.60;99.90;;;;;;5020901;28;20285;-83
2023/11/26 02:37:39;;;;;;;32.37;4.77;;;5.60;99.90;;;;;;5038671;28;20439;-82
2023/11/26 02:40:06;;;;;;;22.40;4.13;;;5.60;99.90;;;;;;5022018;28;20413;-83
2023/11/26 02:42:32;;;;;;;25.73;4.55;;;5.60;99.90;;;;;;5022412;28;20180;-83
2023/11/26 02:45:01;;;;;;;23.88;4.00;;;5.60;99.90;;;;;;5039299;28;20186;-83
2023/11/26 02:47:27;;;;;;;25.90;4.55;;;5.60;99.90;;;;;;5021678;28;20177;-83
2023/11/26 02:49:53;;;;;;;25.67;4.10;;;5.60;99.90;;;;;;5040526;28;20631;-83
2023/11/26 02:52:19;;;;;;;25.70;4.77;;;5.60;99.90;;;;;;5040429;28;20166;-83
2023/11/26 02:54:45;;;;;;;26.93;4.47;;;5.60;99.90;;;;;;5022177;28;20476;-83
2023/11/26 02:57:10;;;;;;;28.93;4.53;;;5.60;99.90;;;;;;5040039;28;20898;-82
2023/11/26 02:59:36;;;;;;;26.97;4.67;;;5.50;99.90;;;;;;5039543;28;20408;-83
2023/11/26 03:02:05;;;;;;;25.55;5.07;;;5.50;99.90;;;;;;5040383;28;20166;-83
2023/11/26 03:04:31;;;;;;;25.20;5.10;;;5.50;99.90;;;;;;5040160;28;20190;-83
2023/11/26 03:06:58;;;;;;;22.40;4.53;;;5.40;99.90;;;;;;5021620;28;20246;-83
2023/11/26 03:14:48;;;;;;;32.95;4.60;;;5.30;99.90;;;;;;5043142;28;20258;-83
2023/11/26 03:17:14;;;;;;;26.13;5.32;;;5.30;99.90;;;;;;5025536;28;20158;-83
2023/11/26 03:19:43;;;;;;;23.42;4.78;;;5.10;99.90;;;;;;5024991;28;20655;-83
2023/11/26 03:22:09;;;;;;;28.13;4.72;;;5.20;99.90;;;;;;5042862;28;20162;-83
2023/11/26 03:24:36;;;;;;;25.02;5.07;;;5.10;99.90;;;;;;5042914;28;20188;-83
2023/11/26 03:27:02;;;;;;;32.15;5.68;;;5.10;99.90;;;;;;5025871;28;20181;-83
2023/11/26 03:29:28;;;;;;;28.95;6.57;;;5.10;99.90;;;;;;5042841;28;20181;-83
2023/11/26 03:31:54;;;;;;;25.08;6.00;;;5.10;99.90;;;;;;5043705;28;20170;-83
2023/11/26 03:34:20;;;;;;;29.20;6.83;;;5.10;99.90;;;;;;5042328;28;20197;-83
2023/11/26 03:36:46;;;;;;;28.37;6.53;;;5.20;99.90;;;;;;5042665;28;20400;-83
2023/11/26 03:39:12;;;;;;;25.30;6.57;;;5.10;99.90;;;;;;5043392;28;20165;-83
2023/11/26 03:41:38;;;;;;;35.38;7.03;;;5.00;99.90;;;;;;5042535;28;20605;-83
2023/11/26 03:44:04;;;;;;;27.98;6.18;;;5.00;99.90;;;;;;5024849;28;20194;-82
2023/11/26 03:46:32;;;;;;;25.90;5.95;;;4.90;99.90;;;;;;5024497;28;20174;-82
2023/11/26 03:48:59;;;;;;;28.15;6.88;;;4.80;99.90;;;;;;5042918;28;20204;-83
2023/11/26 03:51:26;;;;;;;43.35;8.15;;;4.80;99.90;;;;;;5042583;28;20172;-83
2023/11/26 03:53:52;;;;;;;31.27;7.50;;;4.80;99.90;;;;;;5024605;28;20193;-83
2023/11/26 03:56:17;;;;;;;33.77;7.70;;;4.90;99.90;;;;;;5042811;28;20158;-82
2023/11/26 03:58:43;;;;;;;28.23;7.20;;;4.90;99.90;;;;;;5042715;28;20244;-83
2023/11/26 04:01:09;;;;;;;31.38;8.10;;;4.90;99.90;;;;;;5042614;28;20208;-82
2023/11/26 04:03:35;;;;;;;31.47;8.90;;;5.00;99.90;;;;;;5024265;28;20193;-83
2023/11/26 04:06:01;;;;;;;30.63;8.37;;;5.00;99.90;;;;;;5041871;28;20166;-83
2023/11/26 04:08:27;;;;;;;34.77;10.00;;;5.00;99.90;;;;;;5042406;28;20172;-83
2023/11/26 04:10:53;;;;;;;34.30;9.32;;;5.00;99.90;;;;;;5041767;28;20178;-83
2023/11/26 04:13:19;;;;;;;31.73;9.83;;;5.00;99.90;;;;;;5024467;28;20233;-83
2023/11/26 04:15:46;;;;;;;32.93;9.73;;;4.90;99.90;;;;;;5041890;28;20415;-83
2023/11/26 04:18:13;;;;;;;32.85;9.25;;;4.90;99.90;;;;;;5042626;28;20252;-83
2023/11/26 04:20:39;;;;;;;28.05;9.25;;;4.80;99.90;;;;;;5042663;28;20243;-83
2023/11/26 04:23:05;;;;;;;38.70;9.10;;;4.80;99.90;;;;;;5041889;28;20169;-82
2023/11/26 04:25:33;;;;;;;39.73;9.27;;;4.80;99.90;;;;;;5042258;28;20635;-83
2023/11/26 04:27:59;;;;;;;29.80;8.32;;;4.90;99.90;;;;;;5042528;28;20194;-82
2023/11/26 04:30:26;;;;;;;31.97;9.70;;;4.80;99.90;;;;;;5042254;28;20172;-82
2023/11/26 04:32:51;;;;;;;29.75;9.00;;;4.70;99.90;;;;;;5041296;28;20254;-82
2023/11/26 04:35:17;;;;;;;35.90;9.27;;;4.70;99.90;;;;;;5023631;28;20229;-83
2023/11/26 04:37:45;;;;;;;27.93;8.40;;;4.70;99.90;;;;;;5042022;28;20432;-83
2023/11/26 04:40:12;;;;;;;30.95;9.70;;;4.70;99.90;;;;;;5041514;28;20592;-82
2023/11/26 04:42:37;;;;;;;28.63;7.47;;;4.70;99.90;;;;;;5024028;28;20182;-82
2023/11/26 04:45:03;;;;;;;33.00;9.20;;;4.70;99.90;;;;;;5041750;28;20228;-83
2023/11/26 04:47:29;;;;;;;32.60;10.07;;;4.70;99.90;;;;;;5040567;28;20189;-82
2023/11/26 04:49:58;;;;;;;34.40;10.00;;;4.80;99.90;;;;;;5041189;28;20170;-83
2023/11/26 04:54:51;;;;;;;32.03;9.80;;;4.80;99.90;;;;;;5107701;22;20248;-83
2023/11/26 04:57:17;;;;;;;35.40;10.10;;;4.70;99.90;;;;;;5037323;28;20630;-83
2023/11/26 04:59:43;;;;;;;33.93;9.53;;;4.70;99.90;;;;;;5036660;28;20154;-83
2023/11/26 05:02:10;;;;;;;34.30;8.90;;;4.70;99.90;;;;;;5036778;28;20249;-83
2023/11/26 05:04:36;;;;;;;38.78;10.60;;;4.80;99.90;;;;;;5018877;28;20220;-83
2023/11/26 05:07:03;;;;;;;36.90;10.18;;;4.80;99.90;;;;;;5019754;28;20170;-83
2023/11/26 05:09:31;;;;;;;34.00;10.10;;;4.90;99.90;;;;;;5018820;28;20170;-83
2023/11/26 05:11:56;;;;;;;35.67;9.98;;;4.90;99.90;;;;;;5036297;28;20227;-83
2023/11/26 05:14:22;;;;;;;42.03;9.00;;;4.90;99.90;;;;;;5036524;28;20667;-83
2023/11/26 05:16:48;;;;;;;37.33;10.23;;;4.90;99.90;;;;;;5019469;28;20197;-83
2023/11/26 05:19:14;;;;;;;38.63;9.33;;;4.90;99.90;;;;;;5036488;28;20197;-83
2023/11/26 05:21:39;;;;;;;35.33;9.87;;;4.90;99.90;;;;;;5036614;28;20592;-83
2023/11/26 05:24:06;;;;;;;33.43;9.47;;;4.90;99.90;;;;;;5018626;28;20610;-83
2023/11/26 05:26:32;;;;;;;28.95;8.77;;;5.00;99.90;;;;;;5036730;28;20769;-83
2023/11/26 05:28:58;;;;;;;39.67;10.73;;;5.00;99.90;;;;;;5018072;28;20170;-83
2023/11/26 05:31:24;;;;;;;34.43;9.27;;;5.10;99.90;;;;;;5036525;28;20166;-83
2023/11/26 05:33:53;;;;;;;35.90;9.17;;;5.10;99.90;;;;;;5035883;28;20452;-83
2023/11/26 05:36:19;;;;;;;45.50;9.48;;;5.10;99.90;;;;;;5036356;28;20166;-83
2023/11/26 05:38:46;;;;;;;33.70;8.97;;;5.10;99.90;;;;;;5018550;28;20220;-83
2023/11/26 05:41:12;;;;;;;30.65;9.18;;;5.10;99.90;;;;;;5036612;28;20400;-83
2023/11/26 05:43:37;;;;;;;36.30;10.10;;;5.10;99.90;;;;;;5036245;28;20186;-83
2023/11/26 05:46:07;;;;;;;38.90;9.63;;;5.10;99.90;;;;;;5018187;28;20419;-83
2023/11/26 05:48:33;;;;;;;31.95;9.88;;;5.10;99.90;;;;;;5035907;28;20531;-83
2023/11/26 05:51:02;;;;;;;34.38;8.82;;;5.10;99.90;;;;;;5035970;28;20174;-83
2023/11/26 05:53:28;;;;;;;39.78;9.98;;;5.20;99.90;;;;;;5035469;28;20205;-83
2023/11/26 05:55:54;;;;;;;33.57;10.50;;;5.10;99.90;;;;;;5018213;28;20666;-82
2023/11/26 05:58:20;;;;;;;33.33;8.60;;;5.20;99.90;;;;;;5036466;28;20650;-83
2023/11/26 06:00:45;;;;;;;31.80;8.73;;;5.20;99.90;;;;;;5018333;28;20445;-83
2023/11/26 06:03:11;;;;;;;37.63;9.20;;;5.20;99.90;;;;;;5018552;28;20171;-83
2023/11/26 06:05:37;;;;;;;35.37;10.07;;;5.20;99.90;;;;;;5036027;28;20220;-83
2023/11/26 06:08:04;;;;;;;32.33;10.30;;;5.20;99.90;;;;;;5035173;28;20531;-83
2023/11/26 06:10:31;;;;;;;33.70;10.27;;;5.30;99.90;;;;;;5035838;28;20165;-83
2023/11/26 06:12:58;;;;;;;40.90;9.85;;;5.30;99.90;;;;;;5199163;22;20221;-83
2023/11/26 06:15:25;;;;;;;42.92;11.57;;;5.30;99.90;;;;;;5021476;28;20224;-83
2023/11/26 06:17:51;;;;;;;34.25;9.90;;;5.30;99.90;;;;;;5021010;28;20174;-83
2023/11/26 06:20:16;;;;;;;30.50;8.40;;;5.30;99.90;;;;;;5039658;28;20169;-83
2023/11/26 06:22:42;;;;;;;39.10;9.83;;;5.30;99.90;;;;;;5039533;28;20404;-83
2023/11/26 06:25:11;;;;;;;37.27;9.87;;;5.40;99.90;;;;;;5021491;28;20689;-83
2023/11/26 06:27:37;;;;;;;35.70;11.27;;;5.30;99.90;;;;;;5038939;28;20222;-83
2023/11/26 06:30:07;;;;;;;31.42;10.02;;;5.30;99.90;;;;;;5039049;28;20190;-83
2023/11/26 06:32:32;;;;;;;36.17;11.27;;;5.30;99.90;;;;;;5039468;28;20181;-83
2023/11/26 06:34:59;;;;;;;37.37;11.50;;;5.30;99.90;;;;;;5039599;28;20194;-83
2023/11/26 06:37:26;;;;;;;32.20;10.23;;;5.30;99.90;;;;;;5038973;28;20190;-82
2023/11/26 06:39:53;;;;;;;33.88;11.70;;;5.40;99.90;;;;;;5039594;28;20170;-83
2023/11/26 06:42:19;;;;;;;42.10;11.63;;;5.30;99.90;;;;;;5022068;28;20245;-82
2023/11/26 06:44:45;;;;;;;38.30;11.50;;;5.30;99.90;;;;;;5038184;28;20217;-83
2023/11/26 06:47:10;;;;;;;41.08;12.45;;;5.30;99.90;;;;;;5021488;28;20427;-83
2023/11/26 06:49:36;;;;;;;37.13;11.30;;;5.30;99.90;;;;;;5021798;28;20646;-83
2023/11/26 06:52:02;;;;;;;35.33;11.43;;;5.30;99.90;;;;;;5039272;28;20169;-83
2023/11/26 06:54:27;;;;;;;35.77;11.30;;;5.30;99.90;;;;;;5022166;28;20598;-83
2023/11/26 06:56:53;;;;;;;39.20;12.43;;;5.30;99.90;;;;;;5040244;28;20643;-82
2023/11/26 06:59:19;;;;;;;42.13;12.80;;;5.30;99.90;;;;;;5039971;28;20166;-83
2023/11/26 07:01:44;;;;;;;40.00;11.67;;;5.40;99.90;;;;;;5039051;28;20169;-82
2023/11/26 07:04:10;;;;;;;36.10;10.67;;;5.40;99.90;;;;;;5039207;28;20194;-82
2023/11/26 07:06:36;;;;;;;39.50;13.07;;;5.40;99.90;;;;;;5021202;28;20162;-82
2023/11/26 07:09:08;;;;;;;34.43;12.60;;;5.40;99.90;;;;;;5021431;28;20166;-82
2023/11/26 07:11:36;;;;;;;44.60;12.00;;;5.40;99.90;;;;;;5038713;28;20166;-82
2023/11/26 07:14:12;;;;;;;41.50;12.05;;;5.40;99.90;;;;;;5039010;28;20202;-82
2023/11/26 07:16:40;;;;;;;34.03;11.18;;;5.40;99.90;;;;;;5038846;28;20178;-82
2023/11/26 07:19:06;;;;;;;33.10;11.00;;;5.40;99.90;;;;;;5038191;28;20162;-82
2023/11/26 07:21:45;;;;;;;35.53;10.87;;;5.40;99.90;;;;;;5039079;28;20281;-84
2023/11/26 07:24:11;;;;;;;39.65;12.18;;;5.40;99.90;;;;;;5021083;28;20197;-82
2023/11/26 07:26:36;;;;;;;38.40;12.00;;;5.40;99.90;;;;;;5039287;28;20166;-82
2023/11/26 07:29:05;;;;;;;35.87;11.20;;;5.50;99.90;;;;;;5039375;28;20256;-82
2023/11/26 07:31:30;;;;;;;37.47;11.90;;;5.50;99.90;;;;;;5021242;28;20735;-82
2023/11/26 07:33:57;;;;;;;36.87;11.20;;;5.50;99.90;;;;;;5038858;28;20190;-82
2023/11/26 07:36:23;;;;;;;35.22;10.57;;;5.50;99.90;;;;;;5021009;28;20165;-82
2023/11/26 07:38:58;;;;;;;39.83;11.90;;;5.50;99.90;;;;;;5038802;28;20158;-82
2023/11/26 07:41:25;;;;;;;35.30;11.18;;;5.50;99.90;;;;;;5038810;28;20160;-82
2023/11/26 07:43:52;;;;;;;36.55;12.10;;;5.60;99.90;;;;;;5020527;28;20232;-82
2023/11/26 07:46:23;;;;;;;35.60;10.65;;;5.60;99.90;;;;;;5038046;28;20162;-82
2023/11/26 07:48:55;;;;;;;31.95;11.23;;;5.60;99.90;;;;;;5039033;28;20185;-82
2023/11/26 07:51:41;;;;;;;38.35;11.57;;;5.60;99.90;;;;;;5020819;28;20194;-82
2023/11/26 07:54:06;;;;;;;35.45;11.45;;;5.60;99.90;;;;;;5020396;28;20586;-82
2023/11/26 07:56:37;;;;;;;34.43;11.07;;;5.70;99.90;;;;;;5021195;28;20174;-82
2023/11/26 07:59:06;;;;;;;43.25;12.82;;;5.70;99.90;;;;;;5042298;28;20150;-82
2023/11/26 08:01:32;;;;;;;38.08;12.60;;;5.70;99.90;;;;;;5042037;28;20158;-82
2023/11/26 08:03:59;;;;;;;35.33;10.82;;;5.70;99.90;;;;;;5041748;28;20188;-82
2023/11/26 08:06:26;;;;;;;42.60;12.50;;;5.70;99.90;;;;;;5024151;28;20170;-82
2023/11/26 08:08:53;;;;;;;40.25;11.82;;;5.70;99.90;;;;;;5042631;28;20188;-82
2023/11/26 08:11:22;;;;;;;40.20;11.35;;;5.80;99.90;;;;;;5023510;28;20192;-82
2023/11/26 08:13:53;;;;;;;41.00;12.20;;;5.80;99.90;;;;;;5023266;28;20300;-82
2023/11/26 08:16:21;;;;;;;40.45;13.00;;;5.90;99.90;;;;;;5041882;28;20504;-82
2023/11/26 08:19:01;;;;;;;39.40;11.45;;;5.90;99.90;;;;;;5024040;28;20192;-82
2023/11/26 08:21:27;;;;;;;45.95;12.32;;;5.90;99.90;;;;;;5041678;28;20488;-82
2023/11/26 08:23:55;;;;;;;35.75;11.85;;;6.00;99.90;;;;;;5023036;28;20720;-82
2023/11/26 08:26:22;;;;;;;37.03;12.18;;;6.00;99.90;;;;;;5041212;28;20177;-82
2023/11/26 08:28:48;;;;;;;37.85;12.65;;;6.00;99.90;;;;;;5041912;28;20193;-83
2023/11/26 08:31:15;;;;;;;32.53;11.73;;;6.10;99.90;;;;;;5041920;28;20197;-82
2023/11/26 08:33:44;;;;;;;33.38;10.45;;;6.10;99.90;;;;;;5041610;28;20559;-82
2023/11/26 08:36:10;;;;;;;44.10;14.30;;;6.20;99.90;;;;;;5023329;28;20166;-82
2023/11/26 08:38:41;;;;;;;35.47;10.73;;;6.20;99.90;;;;;;5023782;28;20673;-82
2023/11/26 08:41:20;;;;;;;38.53;12.38;;;6.30;99.90;;;;;;5023779;28;20154;-82
2023/11/26 08:43:50;;;;;;;36.60;11.85;;;6.30;99.90;;;;;;5023652;28;20277;-82
2023/11/26 08:46:16;;;;;;;37.03;11.82;;;6.30;99.90;;;;;;5041435;28;20162;-82
2023/11/26 08:48:43;;;;;;;37.47;12.32;;;6.30;99.90;;;;;;5040709;28;20623;-82
2023/11/26 08:51:10;;;;;;;36.00;11.55;;;6.30;99.90;;;;;;5040821;28;20173;-82
2023/11/26 08:53:36;;;;;;;38.75;12.70;;;6.30;99.90;;;;;;5040338;28;20185;-82
2023/11/26 08:56:02;;;;;;;39.90;11.27;;;6.30;99.90;;;;;;5024542;28;20188;-83
2023/11/26 08:58:28;;;;;;;33.03;11.32;;;6.40;99.90;;;;;;5023498;28;20180;-82
2023/11/26 09:00:55;;;;;;;41.47;10.67;;;6.40;99.90;;;;;;5041575;28;20185;-82
2023/11/26 09:03:22;;;;;;;38.20;13.38;;;6.50;99.90;;;;;;5022485;28;20217;-82
2023/11/26 09:05:49;;;;;;;47.00;13.07;;;6.50;99.90;;;;;;5022592;28;20166;-82
2023/11/26 09:08:16;;;;;;;34.40;11.43;;;6.50;99.90;;;;;;5040585;28;20173;-82
2023/11/26 09:10:42;;;;;;;38.67;10.52;;;6.50;99.90;;;;;;5041351;28;20162;-82
2023/11/26 09:13:09;;;;;;;34.60;10.50;;;6.50;99.90;;;;;;5022653;28;20528;-82
2023/11/26 09:15:38;;;;;;;38.60;10.50;;;6.60;99.90;;;;;;5023408;28;20265;-82
2023/11/26 09:18:04;;;;;;;36.03;11.07;;;6.60;99.90;;;;;;5040958;28;20249;-82
2023/11/26 09:20:30;;;;;;;34.88;11.43;;;6.60;99.90;;;;;;5022961;28;20312;-82
2023/11/26 09:22:56;;;;;;;36.50;11.27;;;6.60;99.90;;;;;;5039897;28;20181;-82
2023/11/26 09:25:21;;;;;;;34.73;11.40;;;6.70;99.90;;;;;;5040393;28;20485;-82
2023/11/26 09:27:47;;;;;;;36.10;10.87;;;6.70;99.90;;;;;;5022768;28;20669;-83
2023/11/26 09:30:13;;;;;;;32.57;9.77;;;6.70;99.90;;;;;;5040661;28;20177;-83
2023/11/26 09:32:39;;;;;;;33.97;10.33;;;6.80;99.90;;;;;;5040567;28;20643;-83
2023/11/26 09:35:06;;;;;;;41.05;10.02;;;6.90;99.90;;;;;;5040479;28;20758;-83
2023/11/26 09:37:32;;;;;;;34.22;9.45;;;6.90;99.90;;;;;;5042483;28;20249;-82
2023/11/26 09:39:57;;;;;;;33.13;9.33;;;7.00;99.90;;;;;;5042462;28;20201;-82
2023/11/26 09:42:24;;;;;;;33.87;10.40;;;7.00;99.90;;;;;;5042262;28;20162;-82
2023/11/26 09:44:50;;;;;;;32.50;9.48;;;7.00;99.90;;;;;;5042332;28;20428;-82
2023/11/26 09:47:18;;;;;;;36.77;10.20;;;7.10;99.90;;;;;;5025184;28;20170;-82
2023/11/26 09:49:49;;;;;;;35.55;10.20;;;7.10;99.90;;;;;;5042032;28;20428;-82
2023/11/26 09:52:16;;;;;;;31.88;9.90;;;7.10;99.90;;;;;;5042260;28;20158;-82
2023/11/26 09:54:42;;;;;;;31.83;9.43;;;7.20;99.90;;;;;;5041577;28;20197;-82
2023/11/26 09:57:09;;;;;;;39.37;10.83;;;7.20;99.90;;;;;;5042451;28;20173;-82
2023/11/26 09:59:35;;;;;;;28.35;9.00;;;7.20;99.90;;;;;;5024625;28;20492;-82
2023/11/26 10:02:03;;;;;;;31.03;8.20;;;7.20;99.90;;;;;;5041786;28;20570;-82
2023/11/26 10:04:44;;;;;;;34.90;10.00;;;7.20;99.90;;;;;;5040988;28;20420;-82
2023/11/26 10:07:10;;;;;;;40.28;9.73;;;7.30;99.90;;;;;;5023242;28;20189;-82
2023/11/26 10:09:36;;;;;;;31.30;9.48;;;7.20;99.90;;;;;;5041087;28;20205;-83
2023/11/26 10:12:02;;;;;;;30.42;7.82;;;7.30;99.90;;;;;;5187049;22;20199;-84
2023/11/26 10:14:28;;;;;;;27.70;8.43;;;7.20;99.90;;;;;;5309791;22;20228;-83
2023/11/26 10:16:54;;;;;;;31.77;8.53;;;7.30;99.90;;;;;;5159752;22;20489;-84
2023/11/26 10:19:27;;;;;;;32.03;8.47;;;7.30;99.90;;;;;;5013424;28;20254;-84
2023/11/26 10:21:58;;;;;;;30.40;9.43;;;7.30;99.90;;;;;;5015265;28;20453;-84
2023/11/26 10:24:28;;;;;;;31.92;9.20;;;7.30;99.90;;;;;;5014820;28;20608;-83
2023/11/26 10:26:54;;;;;;;33.22;9.70;;;7.30;99.90;;;;;;5013757;28;20175;-83
2023/11/26 10:29:29;;;;;;;30.65;9.38;;;7.30;99.90;;;;;;5015428;28;20170;-84
2023/11/26 10:31:59;;;;;;;30.58;9.35;;;7.30;99.90;;;;;;5013479;28;20249;-82
2023/11/26 10:34:26;;;;;;;33.40;8.60;;;7.30;99.90;;;;;;5015214;28;20289;-82
2023/11/26 10:36:52;;;;;;;28.48;8.65;;;7.40;99.90;;;;;;5013398;28;20201;-82
2023/11/26 10:39:18;;;;;;;29.77;9.10;;;7.50;99.90;;;;;;5015060;28;20186;-82
2023/11/26 10:41:47;;;;;;;29.98;9.02;;;7.40;99.90;;;;;;5015642;28;20197;-82
2023/11/26 10:44:17;;;;;;;33.17;8.70;;;7.50;99.90;;;;;;5015182;28;20671;-82
2023/11/26 10:46:50;;;;;;;31.80;8.07;;;7.50;99.90;;;;;;5013885;28;20221;-82
2023/11/26 10:49:25;;;;;;;30.55;8.20;;;7.60;99.90;;;;;;5014130;28;20174;-82
2023/11/26 10:52:28;;;;;;;25.90;6.95;;;7.60;99.90;;;;;;5015187;28;20158;-82
2023/11/26 10:55:29;;;;;;;29.40;8.70;;;7.60;99.90;;;;;;5015198;28;20198;-82
2023/11/26 10:58:12;;;;;;;28.75;6.93;;;7.60;99.90;;;;;;5006229;28;20182;-82
2023/11/26 11:00:39;;;;;;;27.70;7.65;;;7.70;99.90;;;;;;5014888;28;20507;-82
2023/11/26 11:03:05;;;;;;;31.88;9.10;;;7.70;99.90;;;;;;5015048;28;20167;-82
2023/11/26 11:05:32;;;;;;;27.17;7.55;;;7.70;99.90;;;;;;5014313;28;20206;-82
2023/11/26 11:07:59;;;;;;;25.38;7.75;;;7.80;99.90;;;;;;5015216;28;20178;-82
2023/11/26 11:10:55;;;;;;;27.90;7.22;;;7.90;99.90;;;;;;5014800;28;20167;-82
2023/11/26 11:13:22;;;;;;;31.52;7.20;;;7.80;99.90;;;;;;5015644;28;20183;-82
2023/11/26 11:15:49;;;;;;;28.63;8.95;;;7.80;99.90;;;;;;5015033;28;20225;-82
2023/11/26 11:18:27;;;;;;;25.65;7.70;;;7.80;99.90;;;;;;5015082;28;20177;-82
2023/11/26 11:21:13;;;;;;;27.33;7.57;;;7.80;99.90;;;;;;5014805;28;20570;-82
2023/11/26 11:23:45;;;;;;;25.90;7.05;;;7.80;99.90;;;;;;5014464;28;20277;-82
2023/11/26 11:26:16;;;;;;;30.40;6.97;;;7.80;99.90;;;;;;5014067;28;20170;-82
2023/11/26 11:28:51;;;;;;;32.03;7.22;;;7.80;99.90;;;;;;5015618;28;20151;-82
2023/11/26 11:31:18;;;;;;;33.17;8.30;;;7.80;99.90;;;;;;5014373;28;20170;-82
2023/11/26 11:34:13;;;;;;;32.42;8.30;;;7.80;99.90;;;;;;5018799;28;20267;-82
2023/11/26 11:36:42;;;;;;;28.05;7.18;;;7.80;99.90;;;;;;5017102;28;20225;-82
2023/11/26 11:39:13;;;;;;;23.85;5.57;;;7.80;99.90;;;;;;5017370;28;20261;-82
2023/11/26 11:41:57;;;;;;;27.70;7.30;;;7.80;99.90;;;;;;5018884;28;20209;-82
2023/11/26 11:44:30;;;;;;;27.80;6.38;;;7.80;99.90;;;;;;5017345;28;20281;-82
2023/11/26 11:46:57;;;;;;;29.40;4.97;;;7.80;99.90;;;;;;5017108;28;20166;-82
2023/11/26 11:49:23;;;;;;;29.85;6.10;;;7.80;99.90;;;;;;5018231;28;20472;-82
2023/11/26 11:51:49;;;;;;;25.20;5.90;;;7.80;99.90;;;;;;5018471;28;20401;-82
2023/11/26 11:54:46;;;;;;;33.03;6.90;;;7.90;99.90;;;;;;5018409;28;20278;-82
2023/11/26 11:57:14;;;;;;;26.33;6.18;;;7.90;99.90;;;;;;4994108;28;20212;-82
2023/11/26 11:59:46;;;;;;;34.78;7.25;;;8.00;99.90;;;;;;5017691;28;20853;-82
2023/11/26 12:02:12;;;;;;;31.40;7.55;;;8.10;99.90;;;;;;5017878;28;20407;-82
2023/11/26 12:04:44;;;;;;;34.47;6.53;;;8.20;99.90;;;;;;5018671;28;20179;-82
2023/11/26 12:07:20;;;;;;;26.20;5.95;;;8.20;99.90;;;;;;5018448;28;20154;-82
2023/11/26 12:09:47;;;;;;;28.60;6.60;;;8.30;99.90;;;;;;5017497;28;20578;-82
2023/11/26 12:12:19;;;;;;;25.60;6.47;;;8.30;99.90;;;;;;5017115;28;20178;-82
2023/11/26 12:14:48;;;;;;;25.95;5.40;;;8.30;99.90;;;;;;5018568;28;20194;-82
2023/11/26 12:17:15;;;;;;;26.05;5.20;;;8.30;99.90;;;;;;5018909;28;20182;-82
2023/11/26 12:19:42;;;;;;;23.85;5.43;;;8.30;99.90;;;;;;5018512;28;20159;-84
2023/11/26 12:22:11;;;;;;;30.42;6.88;;;8.30;99.90;;;;;;5018702;28;20166;-82
2023/11/26 12:24:38;;;;;;;25.35;5.47;;;8.30;99.90;;;;;;5018141;28;20304;-84
2023/11/26 12:27:04;;;;;;;25.17;5.70;;;8.30;99.90;;;;;;5018714;28;20232;-84
2023/11/26 12:29:33;;;;;;;32.03;8.88;;;8.30;99.90;;;;;;5016965;28;20698;-84
2023/11/26 12:32:02;;;;;;;26.50;5.65;;;8.30;99.90;;;;;;5016950;28;20631;-84
2023/11/26 12:34:39;;;;;;;23.92;5.53;;;8.30;99.90;;;;;;5018116;28;20193;-84
2023/11/26 12:37:10;;;;;;;28.17;5.53;;;8.20;99.90;;;;;;5017159;28;20162;-84
2023/11/26 12:39:38;;;;;;;25.13;5.40;;;8.20;99.90;;;;;;5017532;28;20217;-84
2023/11/26 12:42:05;;;;;;;26.25;5.22;;;8.20;99.90;;;;;;5018287;28;20159;-84
2023/11/26 12:44:34;;;;;;;23.00;4.85;;;8.20;99.90;;;;;;5018240;28;20237;-84
2023/11/26 12:47:09;;;;;;;28.02;5.45;;;8.20;99.90;;;;;;5016719;28;20177;-84
2023/11/26 12:49:36;;;;;;;23.13;4.30;;;8.20;99.90;;;;;;5018264;28;20225;-84
2023/11/26 12:52:03;;;;;;;23.15;4.72;;;8.20;99.90;;;;;;5016622;28;20185;-84
2023/11/26 12:54:29;;;;;;;27.17;4.78;;;8.20;99.90;;;;;;5017954;28;20182;-84
2023/11/26 12:56:56;;;;;;;25.42;5.10;;;8.10;99.90;;;;;;5017965;28;20166;-84